sensor_id;sensor_type;location;lat;lon;timestamp;P1;durP1;ratioP1;P2;durP2;ratioP2
33148;SDS011;19506;51.040;3.856;2023-05-21T00:01:01;1.70;;;1.60;;
33148;SDS011;19506;51.040;3.856;2023-05-21T00:03:29;3.10;;;1.70;;
33148;SDS011;19506;51.040;3.856;2023-05-21T00:05:55;2.35;;;1.30;;
33148;SDS011;19506;51.040;3.856;2023-05-21T00:08:21;1.65;;;1.55;;
33148;SDS011;19506;51.040;3.856;2023-05-21T00:10:48;1.30;;;1.20;;
33148;SDS011;19506;51.040;3.856;2023-05-21T00:13:13;2.50;;;1.38;;
33148;SDS011;19506;51.040;3.856;2023-05-21T00:15:39;2.08;;;1.42;;
33148;SDS011;19506;51.040;3.856;2023-05-21T00:18:05;1.23;;;1.13;;
33148;SDS011;19506;51.040;3.856;2023-05-21T00:20:30;2.13;;;1.58;;
33148;SDS011;19506;51.040;3.856;2023-05-21T00:22:57;1.33;;;1.23;;
33148;SDS011;19506;51.040;3.856;2023-05-21T00:25:23;2.25;;;1.92;;
33148;SDS011;19506;51.040;3.856;2023-05-21T00:27:48;1.30;;;1.20;;
33148;SDS011;19506;51.040;3.856;2023-05-21T00:30:14;1.42;;;1.33;;
33148;SDS011;19506;51.040;3.856;2023-05-21T00:32:40;3.13;;;1.40;;
33148;SDS011;19506;51.040;3.856;2023-05-21T00:35:06;1.90;;;1.63;;
33148;SDS011;19506;51.040;3.856;2023-05-21T00:37:33;3.97;;;1.30;;
33148;SDS011;19506;51.040;3.856;2023-05-21T00:40:02;2.08;;;1.42;;
33148;SDS011;19506;51.040;3.856;2023-05-21T00:45:05;1.83;;;1.60;;
33148;SDS011;19506;51.040;3.856;2023-05-21T00:47:31;2.83;;;1.50;;
33148;SDS011;19506;51.040;3.856;2023-05-21T00:49:57;1.60;;;1.50;;
33148;SDS011;19506;51.040;3.856;2023-05-21T00:52:23;1.52;;;1.40;;
33148;SDS011;19506;51.040;3.856;2023-05-21T00:54:51;3.38;;;1.67;;
33148;SDS011;19506;51.040;3.856;2023-05-21T00:57:17;2.15;;;1.35;;
33148;SDS011;19506;51.040;3.856;2023-05-21T00:59:47;1.25;;;1.15;;
33148;SDS011;19506;51.040;3.856;2023-05-21T01:02:16;1.63;;;1.30;;
33148;SDS011;19506;51.040;3.856;2023-05-21T01:04:43;1.15;;;1.05;;
33148;SDS011;19506;51.040;3.856;2023-05-21T01:07:09;1.77;;;1.63;;
33148;SDS011;19506;51.040;3.856;2023-05-21T01:09:36;1.55;;;1.45;;
33148;SDS011;19506;51.040;3.856;2023-05-21T01:12:02;2.33;;;1.33;;
33148;SDS011;19506;51.040;3.856;2023-05-21T01:14:29;1.63;;;1.48;;
33148;SDS011;19506;51.040;3.856;2023-05-21T01:16:56;2.05;;;1.70;;
33148;SDS011;19506;51.040;3.856;2023-05-21T01:19:26;1.55;;;1.45;;
33148;SDS011;19506;51.040;3.856;2023-05-21T01:21:52;1.80;;;1.58;;
33148;SDS011;19506;51.040;3.856;2023-05-21T01:24:24;1.52;;;1.42;;
33148;SDS011;19506;51.040;3.856;2023-05-21T01:26:49;1.35;;;1.15;;
33148;SDS011;19506;51.040;3.856;2023-05-21T01:29:16;1.38;;;1.27;;
33148;SDS011;19506;51.040;3.856;2023-05-21T01:34:18;1.73;;;1.63;;
33148;SDS011;19506;51.040;3.856;2023-05-21T01:37:02;1.20;;;1.10;;
33148;SDS011;19506;51.040;3.856;2023-05-21T01:39:41;1.55;;;1.30;;
33148;SDS011;19506;51.040;3.856;2023-05-21T01:42:10;1.20;;;1.10;;
33148;SDS011;19506;51.040;3.856;2023-05-21T01:44:37;1.60;;;1.38;;
33148;SDS011;19506;51.040;3.856;2023-05-21T01:47:04;3.38;;;1.92;;
33148;SDS011;19506;51.040;3.856;2023-05-21T01:49:30;1.35;;;1.25;;
33148;SDS011;19506;51.040;3.856;2023-05-21T01:51:56;1.50;;;1.30;;
33148;SDS011;19506;51.040;3.856;2023-05-21T01:54:22;1.02;;;1.00;;
33148;SDS011;19506;51.040;3.856;2023-05-21T01:56:48;1.50;;;1.40;;
33148;SDS011;19506;51.040;3.856;2023-05-21T01:59:14;3.03;;;1.40;;
33148;SDS011;19506;51.040;3.856;2023-05-21T02:01:41;1.40;;;1.30;;
33148;SDS011;19506;51.040;3.856;2023-05-21T02:04:07;1.30;;;1.20;;
33148;SDS011;19506;51.040;3.856;2023-05-21T02:06:32;1.73;;;1.40;;
33148;SDS011;19506;51.040;3.856;2023-05-21T02:09:00;3.75;;;1.33;;
33148;SDS011;19506;51.040;3.856;2023-05-21T02:11:26;1.63;;;1.25;;
33148;SDS011;19506;51.040;3.856;2023-05-21T02:13:52;1.95;;;1.23;;
33148;SDS011;19506;51.040;3.856;2023-05-21T02:16:18;1.85;;;1.35;;
33148;SDS011;19506;51.040;3.856;2023-05-21T02:18:46;1.48;;;1.20;;
33148;SDS011;19506;51.040;3.856;2023-05-21T02:21:15;1.80;;;1.20;;
33148;SDS011;19506;51.040;3.856;2023-05-21T02:23:41;1.65;;;1.50;;
33148;SDS011;19506;51.040;3.856;2023-05-21T02:26:07;1.38;;;1.30;;
33148;SDS011;19506;51.040;3.856;2023-05-21T02:28:33;1.63;;;1.52;;
33148;SDS011;19506;51.040;3.856;2023-05-21T02:31:00;1.50;;;1.05;;
33148;SDS011;19506;51.040;3.856;2023-05-21T02:33:25;1.33;;;1.20;;
33148;SDS011;19506;51.040;3.856;2023-05-21T02:35:51;1.35;;;1.25;;
33148;SDS011;19506;51.040;3.856;2023-05-21T02:38:17;1.45;;;1.30;;
33148;SDS011;19506;51.040;3.856;2023-05-21T02:40:44;1.80;;;1.30;;
33148;SDS011;19506;51.040;3.856;2023-05-21T02:43:10;1.58;;;1.48;;
33148;SDS011;19506;51.040;3.856;2023-05-21T02:45:35;2.08;;;1.42;;
33148;SDS011;19506;51.040;3.856;2023-05-21T02:48:01;1.27;;;1.17;;
33148;SDS011;19506;51.040;3.856;2023-05-21T02:50:27;2.10;;;1.20;;
33148;SDS011;19506;51.040;3.856;2023-05-21T02:52:52;2.15;;;1.50;;
33148;SDS011;19506;51.040;3.856;2023-05-21T02:55:18;1.33;;;1.23;;
33148;SDS011;19506;51.040;3.856;2023-05-21T02:57:44;1.50;;;1.23;;
33148;SDS011;19506;51.040;3.856;2023-05-21T03:00:10;1.27;;;1.17;;
33148;SDS011;19506;51.040;3.856;2023-05-21T03:02:36;1.38;;;1.27;;
33148;SDS011;19506;51.040;3.856;2023-05-21T03:05:02;1.30;;;1.20;;
33148;SDS011;19506;51.040;3.856;2023-05-21T03:07:27;1.23;;;1.10;;
33148;SDS011;19506;51.040;3.856;2023-05-21T03:09:53;1.30;;;1.20;;
33148;SDS011;19506;51.040;3.856;2023-05-21T03:12:19;4.22;;;1.40;;
33148;SDS011;19506;51.040;3.856;2023-05-21T03:14:44;1.30;;;1.20;;
33148;SDS011;19506;51.040;3.856;2023-05-21T03:17:10;1.88;;;1.60;;
33148;SDS011;19506;51.040;3.856;2023-05-21T03:19:38;1.50;;;1.40;;
33148;SDS011;19506;51.040;3.856;2023-05-21T03:22:08;2.88;;;1.50;;
33148;SDS011;19506;51.040;3.856;2023-05-21T03:24:33;1.27;;;1.17;;
33148;SDS011;19506;51.040;3.856;2023-05-21T03:27:00;1.67;;;1.10;;
33148;SDS011;19506;51.040;3.856;2023-05-21T03:29:26;1.40;;;1.20;;
33148;SDS011;19506;51.040;3.856;2023-05-21T03:31:52;1.27;;;1.17;;
33148;SDS011;19506;51.040;3.856;2023-05-21T03:34:18;1.25;;;1.13;;
33148;SDS011;19506;51.040;3.856;2023-05-21T03:36:45;1.23;;;1.13;;
33148;SDS011;19506;51.040;3.856;2023-05-21T03:39:11;1.38;;;1.27;;
33148;SDS011;19506;51.040;3.856;2023-05-21T03:41:36;1.80;;;1.40;;
33148;SDS011;19506;51.040;3.856;2023-05-21T03:44:02;1.48;;;1.38;;
33148;SDS011;19506;51.040;3.856;2023-05-21T03:46:28;2.03;;;1.40;;
33148;SDS011;19506;51.040;3.856;2023-05-21T03:48:54;1.30;;;1.20;;
33148;SDS011;19506;51.040;3.856;2023-05-21T03:51:19;1.00;;;1.00;;
33148;SDS011;19506;51.040;3.856;2023-05-21T03:53:45;2.25;;;1.35;;
33148;SDS011;19506;51.040;3.856;2023-05-21T03:56:11;1.45;;;1.35;;
33148;SDS011;19506;51.040;3.856;2023-05-21T03:58:36;1.27;;;1.17;;
33148;SDS011;19506;51.040;3.856;2023-05-21T04:01:02;1.42;;;1.27;;
33148;SDS011;19506;51.040;3.856;2023-05-21T04:03:28;1.20;;;1.10;;
33148;SDS011;19506;51.040;3.856;2023-05-21T04:05:56;1.45;;;1.35;;
33148;SDS011;19506;51.040;3.856;2023-05-21T04:08:22;1.40;;;1.30;;
33148;SDS011;19506;51.040;3.856;2023-05-21T04:10:48;1.75;;;1.40;;
33148;SDS011;19506;51.040;3.856;2023-05-21T04:13:13;1.20;;;1.10;;
33148;SDS011;19506;51.040;3.856;2023-05-21T04:15:39;1.60;;;1.20;;
33148;SDS011;19506;51.040;3.856;2023-05-21T04:18:05;1.83;;;1.27;;
33148;SDS011;19506;51.040;3.856;2023-05-21T04:20:31;0.90;;;0.90;;
33148;SDS011;19506;51.040;3.856;2023-05-21T04:22:56;1.85;;;1.38;;
33148;SDS011;19506;51.040;3.856;2023-05-21T04:25:22;1.30;;;1.20;;
33148;SDS011;19506;51.040;3.856;2023-05-21T04:27:49;1.30;;;1.20;;
33148;SDS011;19506;51.040;3.856;2023-05-21T04:30:15;1.25;;;0.98;;
33148;SDS011;19506;51.040;3.856;2023-05-21T04:32:40;1.50;;;1.40;;
33148;SDS011;19506;51.040;3.856;2023-05-21T04:35:09;1.45;;;1.35;;
33148;SDS011;19506;51.040;3.856;2023-05-21T04:37:36;1.25;;;1.15;;
33148;SDS011;19506;51.040;3.856;2023-05-21T04:40:06;1.77;;;1.20;;
33148;SDS011;19506;51.040;3.856;2023-05-21T04:42:34;1.33;;;1.08;;
33148;SDS011;19506;51.040;3.856;2023-05-21T04:45:00;1.30;;;1.20;;
33148;SDS011;19506;51.040;3.856;2023-05-21T04:47:26;1.63;;;1.15;;
33148;SDS011;19506;51.040;3.856;2023-05-21T04:49:54;1.38;;;1.17;;
33148;SDS011;19506;51.040;3.856;2023-05-21T04:52:20;1.77;;;1.30;;
33148;SDS011;19506;51.040;3.856;2023-05-21T04:54:45;1.30;;;1.05;;
33148;SDS011;19506;51.040;3.856;2023-05-21T04:57:11;1.75;;;1.42;;
33148;SDS011;19506;51.040;3.856;2023-05-21T04:59:37;1.15;;;1.00;;
33148;SDS011;19506;51.040;3.856;2023-05-21T05:02:03;1.30;;;1.20;;
33148;SDS011;19506;51.040;3.856;2023-05-21T05:04:30;1.00;;;1.00;;
33148;SDS011;19506;51.040;3.856;2023-05-21T05:06:56;1.15;;;1.00;;
33148;SDS011;19506;51.040;3.856;2023-05-21T05:09:21;2.00;;;1.15;;
33148;SDS011;19506;51.040;3.856;2023-05-21T05:11:49;1.00;;;1.00;;
33148;SDS011;19506;51.040;3.856;2023-05-21T05:14:15;1.23;;;1.13;;
33148;SDS011;19506;51.040;3.856;2023-05-21T05:16:40;1.55;;;1.23;;
33148;SDS011;19506;51.040;3.856;2023-05-21T05:19:07;1.08;;;0.98;;
33148;SDS011;19506;51.040;3.856;2023-05-21T05:21:33;1.40;;;1.30;;
33148;SDS011;19506;51.040;3.856;2023-05-21T05:23:58;1.08;;;1.02;;
33148;SDS011;19506;51.040;3.856;2023-05-21T05:26:25;1.30;;;1.20;;
33148;SDS011;19506;51.040;3.856;2023-05-21T05:28:50;1.60;;;1.30;;
33148;SDS011;19506;51.040;3.856;2023-05-21T05:31:16;1.13;;;1.05;;
33148;SDS011;19506;51.040;3.856;2023-05-21T05:33:42;1.50;;;1.08;;
33148;SDS011;19506;51.040;3.856;2023-05-21T05:36:07;0.88;;;0.88;;
33148;SDS011;19506;51.040;3.856;2023-05-21T05:38:33;1.02;;;1.00;;
33148;SDS011;19506;51.040;3.856;2023-05-21T05:41:00;0.95;;;0.95;;
33148;SDS011;19506;51.040;3.856;2023-05-21T05:43:25;1.30;;;1.20;;
33148;SDS011;19506;51.040;3.856;2023-05-21T05:45:51;1.67;;;1.17;;
33148;SDS011;19506;51.040;3.856;2023-05-21T05:48:17;1.27;;;1.17;;
33148;SDS011;19506;51.040;3.856;2023-05-21T05:50:43;1.67;;;1.30;;
33148;SDS011;19506;51.040;3.856;2023-05-21T05:53:09;1.38;;;1.25;;
33148;SDS011;19506;51.040;3.856;2023-05-21T05:55:37;1.30;;;1.05;;
33148;SDS011;19506;51.040;3.856;2023-05-21T05:58:03;0.90;;;0.90;;
33148;SDS011;19506;51.040;3.856;2023-05-21T06:00:28;1.42;;;1.20;;
33148;SDS011;19506;51.040;3.856;2023-05-21T06:02:54;1.40;;;1.30;;
33148;SDS011;19506;51.040;3.856;2023-05-21T06:05:20;2.25;;;1.10;;
33148;SDS011;19506;51.040;3.856;2023-05-21T06:07:46;1.02;;;1.00;;
33148;SDS011;19506;51.040;3.856;2023-05-21T06:10:11;0.90;;;0.90;;
33148;SDS011;19506;51.040;3.856;2023-05-21T06:12:37;0.90;;;0.90;;
33148;SDS011;19506;51.040;3.856;2023-05-21T06:15:03;1.20;;;1.20;;
33148;SDS011;19506;51.040;3.856;2023-05-21T06:17:30;1.30;;;1.20;;
33148;SDS011;19506;51.040;3.856;2023-05-21T06:19:55;1.00;;;1.00;;
33148;SDS011;19506;51.040;3.856;2023-05-21T06:22:21;1.20;;;1.10;;
33148;SDS011;19506;51.040;3.856;2023-05-21T06:24:47;1.25;;;1.05;;
33148;SDS011;19506;51.040;3.856;2023-05-21T06:27:12;1.35;;;0.93;;
33148;SDS011;19506;51.040;3.856;2023-05-21T06:29:38;9.60;;;1.55;;
33148;SDS011;19506;51.040;3.856;2023-05-21T06:32:05;5.40;;;1.75;;
33148;SDS011;19506;51.040;3.856;2023-05-21T06:34:31;6.85;;;2.60;;
33148;SDS011;19506;51.040;3.856;2023-05-21T06:36:57;8.85;;;2.60;;
33148;SDS011;19506;51.040;3.856;2023-05-21T06:39:22;16.48;;;2.10;;
33148;SDS011;19506;51.040;3.856;2023-05-21T06:41:48;4.50;;;1.90;;
33148;SDS011;19506;51.040;3.856;2023-05-21T06:44:14;6.18;;;2.20;;
33148;SDS011;19506;51.040;3.856;2023-05-21T06:46:40;17.75;;;3.10;;
33148;SDS011;19506;51.040;3.856;2023-05-21T06:49:06;9.05;;;2.08;;
33148;SDS011;19506;51.040;3.856;2023-05-21T06:51:32;13.85;;;3.08;;
33148;SDS011;19506;51.040;3.856;2023-05-21T06:53:58;5.05;;;2.33;;
33148;SDS011;19506;51.040;3.856;2023-05-21T06:56:23;4.13;;;2.45;;
33148;SDS011;19506;51.040;3.856;2023-05-21T06:58:50;16.55;;;2.88;;
33148;SDS011;19506;51.040;3.856;2023-05-21T07:01:16;17.00;;;3.42;;
33148;SDS011;19506;51.040;3.856;2023-05-21T07:03:41;25.67;;;5.50;;
33148;SDS011;19506;51.040;3.856;2023-05-21T07:06:07;52.22;;;8.57;;
33148;SDS011;19506;51.040;3.856;2023-05-21T07:08:33;53.35;;;9.65;;
33148;SDS011;19506;51.040;3.856;2023-05-21T07:10:58;48.00;;;9.63;;
33148;SDS011;19506;51.040;3.856;2023-05-21T07:13:24;50.05;;;10.35;;
33148;SDS011;19506;51.040;3.856;2023-05-21T07:15:50;60.53;;;11.93;;
33148;SDS011;19506;51.040;3.856;2023-05-21T07:18:15;51.85;;;10.27;;
33148;SDS011;19506;51.040;3.856;2023-05-21T07:20:41;54.10;;;10.60;;
33148;SDS011;19506;51.040;3.856;2023-05-21T07:23:07;50.17;;;10.43;;
33148;SDS011;19506;51.040;3.856;2023-05-21T07:25:32;54.72;;;10.20;;
33148;SDS011;19506;51.040;3.856;2023-05-21T07:27:58;64.32;;;12.93;;
33148;SDS011;19506;51.040;3.856;2023-05-21T07:30:24;53.35;;;11.32;;
33148;SDS011;19506;51.040;3.856;2023-05-21T07:32:50;41.80;;;11.70;;
33148;SDS011;19506;51.040;3.856;2023-05-21T07:35:16;53.42;;;10.80;;
33148;SDS011;19506;51.040;3.856;2023-05-21T07:37:43;47.92;;;10.82;;
33148;SDS011;19506;51.040;3.856;2023-05-21T07:40:08;44.90;;;9.63;;
33148;SDS011;19506;51.040;3.856;2023-05-21T07:42:34;36.20;;;10.02;;
33148;SDS011;19506;51.040;3.856;2023-05-21T07:45:00;51.33;;;10.10;;
33148;SDS011;19506;51.040;3.856;2023-05-21T07:47:26;40.55;;;9.40;;
33148;SDS011;19506;51.040;3.856;2023-05-21T07:49:52;46.20;;;8.82;;
33148;SDS011;19506;51.040;3.856;2023-05-21T07:52:17;45.72;;;9.27;;
33148;SDS011;19506;51.040;3.856;2023-05-21T07:54:43;38.75;;;9.60;;
33148;SDS011;19506;51.040;3.856;2023-05-21T07:57:08;38.75;;;8.98;;
33148;SDS011;19506;51.040;3.856;2023-05-21T07:59:34;38.85;;;8.43;;
33148;SDS011;19506;51.040;3.856;2023-05-21T08:02:00;38.13;;;9.23;;
33148;SDS011;19506;51.040;3.856;2023-05-21T08:04:25;38.63;;;9.50;;
33148;SDS011;19506;51.040;3.856;2023-05-21T08:06:51;39.65;;;10.02;;
33148;SDS011;19506;51.040;3.856;2023-05-21T08:09:17;39.78;;;7.88;;
33148;SDS011;19506;51.040;3.856;2023-05-21T08:11:44;41.10;;;8.23;;
33148;SDS011;19506;51.040;3.856;2023-05-21T08:14:09;32.90;;;8.60;;
33148;SDS011;19506;51.040;3.856;2023-05-21T08:16:35;29.33;;;8.85;;
33148;SDS011;19506;51.040;3.856;2023-05-21T08:19:01;32.63;;;7.70;;
33148;SDS011;19506;51.040;3.856;2023-05-21T08:21:27;22.98;;;7.55;;
33148;SDS011;19506;51.040;3.856;2023-05-21T08:23:53;31.58;;;7.88;;
33148;SDS011;19506;51.040;3.856;2023-05-21T08:26:18;30.45;;;9.05;;
33148;SDS011;19506;51.040;3.856;2023-05-21T08:28:45;29.30;;;8.38;;
33148;SDS011;19506;51.040;3.856;2023-05-21T08:31:11;31.52;;;7.57;;
33148;SDS011;19506;51.040;3.856;2023-05-21T08:33:36;23.30;;;7.60;;
33148;SDS011;19506;51.040;3.856;2023-05-21T08:36:06;24.67;;;6.80;;
33148;SDS011;19506;51.040;3.856;2023-05-21T08:38:32;21.45;;;7.40;;
33148;SDS011;19506;51.040;3.856;2023-05-21T08:40:58;20.70;;;6.68;;
33148;SDS011;19506;51.040;3.856;2023-05-21T08:43:26;21.40;;;6.55;;
33148;SDS011;19506;51.040;3.856;2023-05-21T08:45:53;27.02;;;6.30;;
33148;SDS011;19506;51.040;3.856;2023-05-21T08:48:21;22.70;;;7.60;;
33148;SDS011;19506;51.040;3.856;2023-05-21T08:50:51;27.13;;;6.25;;
33148;SDS011;19506;51.040;3.856;2023-05-21T08:53:18;25.40;;;6.68;;
33148;SDS011;19506;51.040;3.856;2023-05-21T08:55:45;19.80;;;6.60;;
33148;SDS011;19506;51.040;3.856;2023-05-21T08:58:10;18.27;;;6.63;;
33148;SDS011;19506;51.040;3.856;2023-05-21T09:00:37;27.38;;;6.47;;
33148;SDS011;19506;51.040;3.856;2023-05-21T09:03:03;22.13;;;6.07;;
33148;SDS011;19506;51.040;3.856;2023-05-21T09:05:34;25.73;;;7.13;;
33148;SDS011;19506;51.040;3.856;2023-05-21T09:08:06;25.58;;;6.03;;
33148;SDS011;19506;51.040;3.856;2023-05-21T09:10:45;20.73;;;7.18;;
33148;SDS011;19506;51.040;3.856;2023-05-21T09:13:15;18.48;;;5.75;;
33148;SDS011;19506;51.040;3.856;2023-05-21T09:15:41;20.83;;;5.50;;
33148;SDS011;19506;51.040;3.856;2023-05-21T09:18:11;22.58;;;6.15;;
33148;SDS011;19506;51.040;3.856;2023-05-21T09:20:37;19.08;;;6.35;;
33148;SDS011;19506;51.040;3.856;2023-05-21T09:23:03;16.48;;;5.72;;
33148;SDS011;19506;51.040;3.856;2023-05-21T09:25:34;16.70;;;6.07;;
33148;SDS011;19506;51.040;3.856;2023-05-21T09:28:02;16.55;;;5.50;;
33148;SDS011;19506;51.040;3.856;2023-05-21T09:30:28;18.10;;;5.47;;
33148;SDS011;19506;51.040;3.856;2023-05-21T09:32:58;18.60;;;5.95;;
33148;SDS011;19506;51.040;3.856;2023-05-21T09:35:24;12.23;;;5.72;;
33148;SDS011;19506;51.040;3.856;2023-05-21T09:37:50;14.07;;;5.45;;
33148;SDS011;19506;51.040;3.856;2023-05-21T09:42:50;21.85;;;6.22;;
33148;SDS011;19506;51.040;3.856;2023-05-21T09:45:21;11.73;;;5.10;;
33148;SDS011;19506;51.040;3.856;2023-05-21T09:47:50;15.38;;;5.25;;
33148;SDS011;19506;51.040;3.856;2023-05-21T09:50:22;22.77;;;5.35;;
33148;SDS011;19506;51.040;3.856;2023-05-21T09:52:51;25.55;;;5.10;;
33148;SDS011;19506;51.040;3.856;2023-05-21T09:55:22;17.95;;;5.38;;
33148;SDS011;19506;51.040;3.856;2023-05-21T09:57:51;15.43;;;6.00;;
33148;SDS011;19506;51.040;3.856;2023-05-21T10:00:18;24.70;;;6.85;;
33148;SDS011;19506;51.040;3.856;2023-05-21T10:02:55;16.15;;;5.10;;
33148;SDS011;19506;51.040;3.856;2023-05-21T10:05:25;11.63;;;5.38;;
33148;SDS011;19506;51.040;3.856;2023-05-21T10:07:52;17.17;;;5.60;;
33148;SDS011;19506;51.040;3.856;2023-05-21T10:10:26;14.77;;;6.15;;
33148;SDS011;19506;51.040;3.856;2023-05-21T10:12:54;15.88;;;6.40;;
33148;SDS011;19506;51.040;3.856;2023-05-21T10:15:22;9.68;;;5.03;;
33148;SDS011;19506;51.040;3.856;2023-05-21T10:17:49;12.25;;;5.35;;
33148;SDS011;19506;51.040;3.856;2023-05-21T10:20:17;17.05;;;5.45;;
33148;SDS011;19506;51.040;3.856;2023-05-21T10:22:43;16.95;;;6.25;;
33148;SDS011;19506;51.040;3.856;2023-05-21T10:25:11;9.90;;;5.53;;
33148;SDS011;19506;51.040;3.856;2023-05-21T10:27:37;16.15;;;5.35;;
33148;SDS011;19506;51.040;3.856;2023-05-21T10:30:04;9.93;;;5.00;;
33148;SDS011;19506;51.040;3.856;2023-05-21T10:32:30;14.30;;;5.68;;
33148;SDS011;19506;51.040;3.856;2023-05-21T10:34:57;10.05;;;4.57;;
33148;SDS011;19506;51.040;3.856;2023-05-21T10:37:23;15.73;;;5.68;;
33148;SDS011;19506;51.040;3.856;2023-05-21T10:39:52;18.88;;;5.18;;
33148;SDS011;19506;51.040;3.856;2023-05-21T10:48:10;17.23;;;5.32;;
33148;SDS011;19506;51.040;3.856;2023-05-21T10:56:40;8.57;;;4.60;;
33148;SDS011;19506;51.040;3.856;2023-05-21T11:02:06;15.98;;;5.22;;
33148;SDS011;19506;51.040;3.856;2023-05-21T11:04:33;10.45;;;4.72;;
33148;SDS011;19506;51.040;3.856;2023-05-21T11:07:03;10.48;;;4.95;;
33148;SDS011;19506;51.040;3.856;2023-05-21T11:09:30;7.65;;;5.00;;
33148;SDS011;19506;51.040;3.856;2023-05-21T11:11:56;9.25;;;4.43;;
33148;SDS011;19506;51.040;3.856;2023-05-21T11:21:59;9.35;;;5.22;;
33148;SDS011;19506;51.040;3.856;2023-05-21T11:24:25;10.25;;;5.70;;
33148;SDS011;19506;51.040;3.856;2023-05-21T11:29:43;9.90;;;4.65;;
33148;SDS011;19506;51.040;3.856;2023-05-21T11:32:12;11.15;;;5.70;;
33148;SDS011;19506;51.040;3.856;2023-05-21T11:34:43;10.80;;;5.07;;
33148;SDS011;19506;51.040;3.856;2023-05-21T11:39:42;16.92;;;5.78;;
33148;SDS011;19506;51.040;3.856;2023-05-21T11:42:08;15.52;;;4.82;;
33148;SDS011;19506;51.040;3.856;2023-05-21T11:44:44;10.40;;;4.45;;
33148;SDS011;19506;51.040;3.856;2023-05-21T11:47:12;13.77;;;4.65;;
33148;SDS011;19506;51.040;3.856;2023-05-21T11:49:42;10.82;;;4.63;;
33148;SDS011;19506;51.040;3.856;2023-05-21T11:52:08;20.85;;;5.07;;
33148;SDS011;19506;51.040;3.856;2023-05-21T11:54:41;9.02;;;5.35;;
33148;SDS011;19506;51.040;3.856;2023-05-21T11:57:10;11.75;;;5.05;;
33148;SDS011;19506;51.040;3.856;2023-05-21T11:59:36;8.63;;;4.95;;
33148;SDS011;19506;51.040;3.856;2023-05-21T12:02:02;16.10;;;4.95;;
33148;SDS011;19506;51.040;3.856;2023-05-21T12:04:29;9.75;;;4.65;;
33148;SDS011;19506;51.040;3.856;2023-05-21T12:06:55;10.10;;;4.55;;
33148;SDS011;19506;51.040;3.856;2023-05-21T12:09:22;15.15;;;6.22;;
33148;SDS011;19506;51.040;3.856;2023-05-21T12:11:48;10.30;;;5.30;;
33148;SDS011;19506;51.040;3.856;2023-05-21T12:14:15;9.27;;;4.68;;
33148;SDS011;19506;51.040;3.856;2023-05-21T12:16:42;11.10;;;4.57;;
33148;SDS011;19506;51.040;3.856;2023-05-21T12:19:08;13.85;;;5.15;;
33148;SDS011;19506;51.040;3.856;2023-05-21T12:21:34;12.48;;;5.18;;
33148;SDS011;19506;51.040;3.856;2023-05-21T12:24:00;11.05;;;5.10;;
33148;SDS011;19506;51.040;3.856;2023-05-21T12:26:27;14.93;;;5.63;;
33148;SDS011;19506;51.040;3.856;2023-05-21T12:28:53;11.25;;;5.15;;
33148;SDS011;19506;51.040;3.856;2023-05-21T12:31:20;7.78;;;5.18;;
33148;SDS011;19506;51.040;3.856;2023-05-21T12:33:50;13.77;;;5.22;;
33148;SDS011;19506;51.040;3.856;2023-05-21T12:36:25;14.68;;;5.45;;
33148;SDS011;19506;51.040;3.856;2023-05-21T12:38:52;13.20;;;5.00;;
33148;SDS011;19506;51.040;3.856;2023-05-21T12:41:18;9.23;;;5.22;;
33148;SDS011;19506;51.040;3.856;2023-05-21T12:43:45;9.57;;;5.50;;
33148;SDS011;19506;51.040;3.856;2023-05-21T12:46:11;11.50;;;4.88;;
33148;SDS011;19506;51.040;3.856;2023-05-21T12:48:39;10.63;;;4.82;;
33148;SDS011;19506;51.040;3.856;2023-05-21T12:51:06;10.63;;;5.20;;
33148;SDS011;19506;51.040;3.856;2023-05-21T12:53:40;9.80;;;5.65;;
33148;SDS011;19506;51.040;3.856;2023-05-21T12:56:07;16.25;;;5.95;;
33148;SDS011;19506;51.040;3.856;2023-05-21T12:58:37;10.18;;;5.50;;
33148;SDS011;19506;51.040;3.856;2023-05-21T13:01:04;13.98;;;5.78;;
33148;SDS011;19506;51.040;3.856;2023-05-21T13:03:34;6.75;;;5.53;;
33148;SDS011;19506;51.040;3.856;2023-05-21T13:06:01;9.82;;;5.82;;
33148;SDS011;19506;51.040;3.856;2023-05-21T13:08:27;13.73;;;5.22;;
33148;SDS011;19506;51.040;3.856;2023-05-21T13:10:53;11.48;;;5.03;;
33148;SDS011;19506;51.040;3.856;2023-05-21T13:13:19;9.73;;;5.22;;
33148;SDS011;19506;51.040;3.856;2023-05-21T13:15:44;6.97;;;4.63;;
33148;SDS011;19506;51.040;3.856;2023-05-21T13:18:10;10.27;;;4.60;;
33148;SDS011;19506;51.040;3.856;2023-05-21T13:20:39;10.30;;;5.35;;
33148;SDS011;19506;51.040;3.856;2023-05-21T13:23:05;10.98;;;5.53;;
33148;SDS011;19506;51.040;3.856;2023-05-21T13:25:31;11.52;;;4.95;;
33148;SDS011;19506;51.040;3.856;2023-05-21T13:28:00;13.25;;;6.13;;
33148;SDS011;19506;51.040;3.856;2023-05-21T13:30:29;13.93;;;5.43;;
33148;SDS011;19506;51.040;3.856;2023-05-21T13:32:54;10.02;;;5.78;;
33148;SDS011;19506;51.040;3.856;2023-05-21T13:35:20;12.32;;;5.28;;
33148;SDS011;19506;51.040;3.856;2023-05-21T13:37:46;17.83;;;5.45;;
33148;SDS011;19506;51.040;3.856;2023-05-21T13:40:12;7.78;;;5.65;;
33148;SDS011;19506;51.040;3.856;2023-05-21T13:42:39;17.17;;;5.97;;
33148;SDS011;19506;51.040;3.856;2023-05-21T13:45:09;11.90;;;6.03;;
33148;SDS011;19506;51.040;3.856;2023-05-21T13:47:36;16.70;;;6.05;;
33148;SDS011;19506;51.040;3.856;2023-05-21T13:50:02;19.58;;;6.63;;
33148;SDS011;19506;51.040;3.856;2023-05-21T13:52:28;11.18;;;5.63;;
33148;SDS011;19506;51.040;3.856;2023-05-21T13:54:54;11.80;;;5.10;;
33148;SDS011;19506;51.040;3.856;2023-05-21T13:57:20;9.48;;;5.43;;
33148;SDS011;19506;51.040;3.856;2023-05-21T13:59:46;14.85;;;5.22;;
33148;SDS011;19506;51.040;3.856;2023-05-21T14:02:12;9.95;;;5.55;;
33148;SDS011;19506;51.040;3.856;2023-05-21T14:04:38;9.18;;;4.93;;
33148;SDS011;19506;51.040;3.856;2023-05-21T14:07:04;12.77;;;5.00;;
33148;SDS011;19506;51.040;3.856;2023-05-21T14:09:30;17.83;;;5.70;;
33148;SDS011;19506;51.040;3.856;2023-05-21T14:11:56;9.75;;;4.78;;
33148;SDS011;19506;51.040;3.856;2023-05-21T14:14:23;19.13;;;5.03;;
33148;SDS011;19506;51.040;3.856;2023-05-21T14:16:49;12.05;;;5.13;;
33148;SDS011;19506;51.040;3.856;2023-05-21T14:19:15;11.30;;;5.00;;
33148;SDS011;19506;51.040;3.856;2023-05-21T14:21:41;12.30;;;4.97;;
33148;SDS011;19506;51.040;3.856;2023-05-21T14:24:07;7.75;;;4.75;;
33148;SDS011;19506;51.040;3.856;2023-05-21T14:26:33;12.05;;;5.43;;
33148;SDS011;19506;51.040;3.856;2023-05-21T14:29:00;13.68;;;5.03;;
33148;SDS011;19506;51.040;3.856;2023-05-21T14:31:26;8.70;;;5.07;;
33148;SDS011;19506;51.040;3.856;2023-05-21T14:33:52;11.65;;;4.97;;
33148;SDS011;19506;51.040;3.856;2023-05-21T14:36:18;11.80;;;4.60;;
33148;SDS011;19506;51.040;3.856;2023-05-21T14:38:43;7.18;;;4.60;;
33148;SDS011;19506;51.040;3.856;2023-05-21T14:41:09;12.95;;;4.43;;
33148;SDS011;19506;51.040;3.856;2023-05-21T14:43:35;12.60;;;4.28;;
33148;SDS011;19506;51.040;3.856;2023-05-21T14:46:01;13.45;;;5.20;;
33148;SDS011;19506;51.040;3.856;2023-05-21T14:48:26;11.57;;;5.50;;
33148;SDS011;19506;51.040;3.856;2023-05-21T14:50:52;12.93;;;4.63;;
33148;SDS011;19506;51.040;3.856;2023-05-21T14:53:18;5.88;;;4.13;;
33148;SDS011;19506;51.040;3.856;2023-05-21T14:55:44;8.52;;;4.82;;
33148;SDS011;19506;51.040;3.856;2023-05-21T14:58:10;16.60;;;5.82;;
33148;SDS011;19506;51.040;3.856;2023-05-21T15:00:36;9.80;;;5.38;;
33148;SDS011;19506;51.040;3.856;2023-05-21T15:03:02;8.63;;;5.05;;
33148;SDS011;19506;51.040;3.856;2023-05-21T15:05:29;9.95;;;4.93;;
33148;SDS011;19506;51.040;3.856;2023-05-21T15:07:55;14.70;;;5.35;;
33148;SDS011;19506;51.040;3.856;2023-05-21T15:10:22;8.45;;;5.82;;
33148;SDS011;19506;51.040;3.856;2023-05-21T15:12:49;16.75;;;5.28;;